Time;durP1;ratioP1;P1;durP2;ratioP2;P2;SDS_P1;SDS_P2;PMS_P1;PMS_P2;Temp;Humidity;BMP_temperature;BMP_pressure;BME280_temperature;BME280_humidity;BME280_pressure;Samples;Min_cycle;Max_cycle;Signal;HPM_P1;HPM_P2
2023/09/18 00:01:28;;;;;;;12.02;8.70;;;19.80;80.20;;;18.90;100.00;95626.38;6090715;23;20010;-68
2023/09/18 00:03:54;;;;;;;10.25;9.07;;;19.80;80.30;;;18.88;100.00;95620.50;6066164;23;20003;-68
2023/09/18 00:06:23;;;;;;;9.80;8.82;;;19.70;80.10;;;18.86;100.00;95614.63;6088552;23;20018;-68
2023/09/18 00:08:51;;;;;;;10.02;8.52;;;19.70;80.40;;;18.83;100.00;95612.47;6089431;23;20049;-67
2023/09/18 00:11:16;;;;;;;10.05;9.05;;;19.70;80.40;;;18.83;100.00;95604.47;6089106;23;20619;-67
2023/09/18 00:13:42;;;;;;;10.38;8.63;;;19.70;80.20;;;18.81;100.00;95603.91;6089131;23;20014;-68
2023/09/18 00:16:08;;;;;;;8.75;7.85;;;19.60;80.30;;;18.81;100.00;95603.91;6090045;23;20041;-68
2023/09/18 00:18:33;;;;;;;8.60;7.80;;;19.70;80.20;;;18.79;100.00;95600.69;6090360;23;20053;-68
2023/09/18 00:20:59;;;;;;;7.72;6.78;;;19.70;80.00;;;18.80;100.00;95596.97;6041701;23;20372;-69
2023/09/18 00:23:25;;;;;;;7.70;6.82;;;19.70;80.00;;;18.80;100.00;95601.50;6041059;23;20022;-68
2023/09/18 00:25:51;;;;;;;8.00;6.95;;;19.70;79.90;;;18.78;100.00;95593.72;6065713;23;20082;-68
2023/09/18 00:28:17;;;;;;;7.95;6.60;;;19.70;79.90;;;18.77;100.00;95586.00;6090435;23;20017;-69
2023/09/18 00:30:47;;;;;;;8.07;6.32;;;19.60;80.10;;;18.76;100.00;95585.19;6087702;23;20045;-69
2023/09/18 00:33:13;;;;;;;8.43;6.55;;;19.60;80.00;;;18.75;100.00;95575.59;6088459;23;20476;-69
2023/09/18 00:35:39;;;;;;;10.00;7.00;;;19.60;80.00;;;18.74;100.00;95575.84;6089295;23;20018;-69
2023/09/18 00:38:07;;;;;;;6.75;6.07;;;19.60;80.10;;;18.74;100.00;95570.53;6041537;23;20025;-69
2023/09/18 00:40:32;;;;;;;7.85;6.45;;;19.60;79.90;;;18.72;100.00;95569.97;6089332;23;21518;-68
2023/09/18 00:42:58;;;;;;;8.82;6.22;;;19.60;80.00;;;18.71;100.00;95569.16;6089787;23;20010;-70
2023/09/18 00:45:24;;;;;;;8.57;6.90;;;19.60;79.90;;;18.69;100.00;95563.28;6065130;23;20026;-68
2023/09/18 00:47:50;;;;;;;7.03;6.22;;;19.60;80.10;;;18.67;100.00;95560.88;6065115;23;20751;-68
2023/09/18 00:50:16;;;;;;;7.47;6.50;;;19.60;80.10;;;18.67;100.00;95552.09;6064717;23;20018;-69
2023/09/18 00:52:42;;;;;;;8.73;6.55;;;19.60;80.10;;;18.69;100.00;95557.97;6065291;23;20049;-69
2023/09/18 00:55:08;;;;;;;8.00;6.72;;;19.60;80.00;;;18.66;100.00;95556.59;6091452;23;20033;-68
2023/09/18 00:57:33;;;;;;;8.93;7.45;;;19.60;80.00;;;18.64;100.00;95556.06;6065256;23;20029;-69
2023/09/18 00:59:59;;;;;;;8.75;6.90;;;19.60;80.00;;;18.63;100.00;95553.66;6089437;23;20022;-68
2023/09/18 01:02:26;;;;;;;9.20;8.30;;;19.60;80.10;;;18.60;100.00;95544.28;6064820;23;20033;-69
2023/09/18 01:04:52;;;;;;;9.90;8.90;;;19.50;80.20;;;18.57;100.00;95536.00;6039263;23;20018;-68
2023/09/18 01:07:18;;;;;;;10.02;8.75;;;19.50;80.40;;;18.54;100.00;95542.59;6017094;23;20577;-69
2023/09/18 01:09:43;;;;;;;10.57;7.93;;;19.50;80.50;;;18.51;100.00;95539.66;6089809;23;20624;-68
2023/09/18 01:12:15;;;;;;;9.80;8.50;;;19.50;80.40;;;18.51;100.00;95539.66;6040929;23;20088;-68
2023/09/18 01:15:00;;;;;;;9.05;8.23;;;19.40;80.50;;;18.50;100.00;95527.38;6090697;23;20069;-69
2023/09/18 01:17:26;;;;;;;9.55;7.72;;;19.40;80.40;;;18.49;100.00;95533.78;6066543;23;20022;-69
2023/09/18 01:19:52;;;;;;;9.75;7.90;;;19.40;80.40;;;18.51;100.00;95531.66;6040853;23;20539;-68
2023/09/18 01:22:19;;;;;;;9.27;7.78;;;19.50;80.40;;;18.53;100.00;95537.53;6089179;23;20033;-68
2023/09/18 01:24:47;;;;;;;10.68;7.75;;;19.50;80.30;;;18.51;100.00;95534.31;6065640;23;20364;-68
2023/09/18 01:27:14;;;;;;;10.77;7.60;;;19.50;80.20;;;18.47;100.00;95528.69;6088134;23;20018;-68
2023/09/18 01:29:40;;;;;;;9.68;7.80;;;19.40;80.30;;;18.47;100.00;95530.56;6062541;23;20637;-67
2023/09/18 01:32:06;;;;;;;8.88;8.00;;;19.40;80.20;;;18.44;100.00;95533.72;6064391;23;20038;-69
2023/09/18 01:34:49;;;;;;;8.57;7.78;;;19.40;80.30;;;18.41;100.00;95534.22;6088303;23;20033;-69
2023/09/18 01:37:17;;;;;;;10.23;9.20;;;19.40;80.30;;;18.34;100.00;95540.56;6044080;23;20006;-68
2023/09/18 01:39:42;;;;;;;11.55;8.93;;;19.30;80.50;;;18.33;100.00;95538.97;6091033;23;20093;-69
2023/09/18 01:42:11;;;;;;;9.90;8.85;;;19.30;80.40;;;18.29;100.00;95542.34;6040399;23;20503;-69
2023/09/18 01:44:38;;;;;;;9.13;7.88;;;19.20;80.70;;;18.27;100.00;95536.47;6064621;23;20029;-69
2023/09/18 01:47:05;;;;;;;10.63;9.52;;;19.20;80.80;;;18.24;100.00;95545.78;6065003;23;20027;-69
2023/09/18 01:49:34;;;;;;;11.40;8.93;;;19.10;80.80;;;18.20;100.00;95534.03;6064762;23;20337;-69
2023/09/18 01:52:00;;;;;;;10.50;9.40;;;19.10;81.00;;;18.16;100.00;95532.91;6041347;23;20034;-69
2023/09/18 01:54:25;;;;;;;10.55;9.43;;;19.10;81.30;;;18.15;100.00;95520.66;6064292;23;20090;-68
2023/09/18 01:56:53;;;;;;;11.43;10.18;;;19.00;81.40;;;18.14;100.00;95510.28;6064753;23;20481;-68
2023/09/18 01:59:19;;;;;;;12.40;11.10;;;19.00;81.60;;;18.10;100.00;95501.97;6089368;23;20027;-69
2023/09/18 02:01:44;;;;;;;10.30;9.23;;;19.00;81.50;;;18.09;100.00;95502.22;6040623;23;20023;-67
2023/09/18 02:04:10;;;;;;;12.60;9.73;;;19.00;81.10;;;18.06;100.00;95503.53;6090109;23;20006;-67
2023/09/18 02:06:36;;;;;;;10.77;9.68;;;19.00;81.00;;;18.06;100.00;95512.31;6062910;23;20022;-67
2023/09/18 02:09:03;;;;;;;11.07;9.25;;;19.00;81.00;;;18.03;100.00;95514.66;6088125;23;20013;-67
2023/09/18 02:11:29;;;;;;;10.50;9.40;;;18.90;80.80;;;17.98;100.00;95511.97;6088276;23;20029;-67
2023/09/18 02:13:56;;;;;;;11.32;8.73;;;18.90;80.60;;;17.96;100.00;95511.41;6088457;23;20022;-67
2023/09/18 02:16:24;;;;;;;11.40;8.98;;;18.90;80.40;;;17.92;100.00;95500.47;6088055;23;20014;-67
2023/09/18 02:18:50;;;;;;;10.05;9.05;;;18.80;80.40;;;17.86;100.00;95505.94;6042283;23;20520;-67
2023/09/18 02:21:20;;;;;;;10.40;9.32;;;18.80;80.70;;;17.81;100.00;95500.59;6040991;23;20022;-67
2023/09/18 02:23:49;;;;;;;11.63;9.88;;;18.70;80.60;;;17.75;100.00;95500.53;6064656;23;20377;-68
2023/09/18 02:26:15;;;;;;;11.18;9.88;;;18.60;81.00;;;17.71;100.00;95493.31;6065246;23;20026;-67
2023/09/18 02:28:41;;;;;;;10.57;9.48;;;18.60;81.10;;;17.66;100.00;95501.19;6089702;23;20341;-67
2023/09/18 02:31:08;;;;;;;11.57;10.38;;;18.50;81.10;;;17.65;100.00;95495.06;6062505;23;20018;-68
2023/09/18 02:33:33;;;;;;;10.77;9.77;;;18.60;81.00;;;17.63;100.00;95497.16;6064096;23;20093;-67
2023/09/18 02:35:59;;;;;;;9.90;8.90;;;18.60;80.80;;;17.61;100.00;95493.13;6064304;23;20018;-67
2023/09/18 02:38:26;;;;;;;10.35;9.27;;;18.60;80.60;;;17.56;100.00;95485.09;6087969;23;20014;-68
2023/09/18 02:40:53;;;;;;;10.98;9.88;;;18.60;80.70;;;17.52;100.00;95474.16;6064408;23;20014;-69
2023/09/18 02:43:19;;;;;;;11.15;9.93;;;18.50;81.40;;;17.53;100.00;95469.63;6089033;23;20340;-68
2023/09/18 02:45:45;;;;;;;11.02;9.93;;;18.50;81.60;;;17.52;100.00;95465.38;6064861;23;20410;-75
2023/09/18 02:48:11;;;;;;;10.63;9.48;;;18.50;82.00;;;17.51;100.00;95458.44;6064500;23;20022;-74
2023/09/18 02:50:37;;;;;;;10.10;9.10;;;18.50;82.10;;;17.51;100.00;95456.59;6089375;23;20089;-69
2023/09/18 02:53:05;;;;;;;10.10;8.88;;;18.60;82.20;;;17.50;100.00;95455.00;6089385;23;20023;-68
2023/09/18 02:55:30;;;;;;;9.82;8.52;;;18.50;82.20;;;17.51;100.00;95453.94;6064275;23;20034;-67
2023/09/18 02:57:56;;;;;;;8.80;8.00;;;18.50;82.00;;;17.52;100.00;95452.09;6064656;23;20006;-68
2023/09/18 03:00:22;;;;;;;8.90;8.00;;;18.50;82.00;;;17.52;100.00;95466.19;6087409;23;20024;-68
2023/09/18 03:02:48;;;;;;;11.75;8.80;;;18.60;81.90;;;17.50;100.00;95456.84;6087861;23;20038;-68
2023/09/18 03:05:13;;;;;;;10.25;9.23;;;18.50;82.00;;;17.51;100.00;95458.44;6062855;23;20097;-68
2023/09/18 03:07:39;;;;;;;11.63;9.77;;;18.60;82.00;;;17.49;100.00;95469.34;6087548;23;20029;-67
2023/09/18 03:10:06;;;;;;;9.32;8.40;;;18.50;82.10;;;17.47;100.00;95460.81;6088564;23;20010;-67
2023/09/18 03:12:31;;;;;;;11.55;10.45;;;18.50;82.20;;;17.48;100.00;95466.94;6087095;23;21902;-67
2023/09/18 03:14:57;;;;;;;11.23;10.13;;;18.60;82.10;;;17.49;100.00;95463.22;6088263;23;20050;-68
2023/09/18 03:17:23;;;;;;;10.75;9.65;;;18.60;81.90;;;17.48;100.00;95465.06;6087861;23;20026;-67
2023/09/18 03:19:49;;;;;;;12.93;11.65;;;18.50;81.80;;;17.47;100.00;95454.69;6089184;23;20018;-68
2023/09/18 03:22:15;;;;;;;14.93;12.93;;;18.50;82.00;;;17.45;100.00;95453.06;6066073;23;20014;-67
2023/09/18 03:24:41;;;;;;;12.18;10.90;;;18.60;81.80;;;17.44;100.00;95448.00;6066627;23;20440;-67
2023/09/18 03:27:07;;;;;;;31.33;26.25;;;18.50;81.70;;;17.41;100.00;95448.47;6089823;23;20022;-68
2023/09/18 03:29:32;;;;;;;37.78;32.67;;;18.40;81.80;;;17.41;100.00;95451.13;6063814;23;20352;-67
2023/09/18 03:31:59;;;;;;;21.55;19.35;;;18.50;81.90;;;17.36;100.00;95454.53;6089654;23;20422;-68
2023/09/18 03:34:28;;;;;;;52.17;46.42;;;18.40;81.80;;;17.35;100.00;95436.19;6089446;23;20019;-68
2023/09/18 03:36:54;;;;;;;39.80;34.65;;;18.40;82.00;;;17.34;100.00;95434.56;6092153;23;20393;-68
2023/09/18 03:39:20;;;;;;;21.23;17.15;;;18.40;82.00;;;17.33;100.00;95427.66;6089989;23;20090;-68
2023/09/18 03:41:45;;;;;;;15.10;13.60;;;18.40;82.20;;;17.31;100.00;95419.13;6089512;23;20487;-66
2023/09/18 03:44:11;;;;;;;14.38;12.93;;;18.30;82.30;;;17.31;100.00;95408.50;6089495;23;20048;-67
2023/09/18 03:46:37;;;;;;;13.35;12.02;;;18.30;82.20;;;17.29;100.00;95415.91;6089503;23;20531;-68
2023/09/18 03:49:03;;;;;;;12.95;10.25;;;18.30;82.10;;;17.25;100.00;95404.19;6090896;23;20042;-69
2023/09/18 03:51:29;;;;;;;15.50;13.90;;;18.30;81.70;;;17.23;100.00;95414.25;6089385;23;20041;-72
2023/09/18 03:53:55;;;;;;;16.83;15.05;;;18.20;81.30;;;17.18;100.00;95407.00;6066138;23;20029;-71
2023/09/18 03:56:22;;;;;;;30.23;25.83;;;18.10;81.10;;;17.15;100.00;95408.28;6064250;23;20019;-70
2023/09/18 03:58:49;;;;;;;40.83;36.42;;;18.10;81.20;;;17.10;100.00;95404.78;6064453;23;20006;-73
2023/09/18 04:01:16;;;;;;;19.60;17.38;;;18.10;81.50;;;17.06;100.00;95401.81;6042885;23;20057;-73
2023/09/18 04:03:41;;;;;;;15.55;12.80;;;18.10;81.50;;;17.02;100.00;95398.06;6068527;23;20006;-72
2023/09/18 04:06:07;;;;;;;14.10;12.60;;;18.10;81.70;;;17.02;100.00;95392.72;6068139;23;20027;-70
2023/09/18 04:08:33;;;;;;;16.00;14.40;;;18.10;81.80;;;17.02;100.00;95397.25;6094180;23;20468;-71
2023/09/18 04:10:59;;;;;;;19.83;17.73;;;18.00;81.60;;;17.01;100.00;95391.13;6094271;23;20023;-73
2023/09/18 04:13:25;;;;;;;11.27;8.82;;;18.00;81.40;;;16.98;100.00;95388.16;6092218;23;20014;-70
2023/09/18 04:15:56;;;;;;;8.75;7.47;;;18.00;81.00;;;16.94;100.00;95382.50;6069238;23;20034;-73
2023/09/18 04:18:22;;;;;;;9.52;7.78;;;18.00;81.10;;;16.91;100.00;95382.22;6094146;23;20061;-73
2023/09/18 04:20:51;;;;;;;8.75;7.75;;;17.90;81.30;;;16.89;100.00;95369.19;6092580;23;20106;-73
2023/09/18 04:23:19;;;;;;;7.78;6.97;;;17.90;81.40;;;16.91;100.00;95372.38;6092276;23;20014;-72
2023/09/18 04:25:45;;;;;;;8.05;7.25;;;17.90;81.50;;;16.90;100.00;95377.94;6068864;23;20018;-72
2023/09/18 04:28:16;;;;;;;11.07;7.68;;;17.90;81.40;;;16.90;100.00;95370.78;6021578;23;20007;-70
2023/09/18 04:30:42;;;;;;;9.73;7.30;;;17.90;81.30;;;16.91;100.00;95375.03;6068555;23;20018;-70
2023/09/18 04:33:09;;;;;;;8.82;7.75;;;18.00;81.70;;;16.89;100.00;95373.69;6093570;23;20040;-70
2023/09/18 04:35:36;;;;;;;10.30;6.97;;;18.00;81.40;;;16.89;100.00;95379.00;6092398;23;20010;-73
2023/09/18 04:38:02;;;;;;;9.32;8.20;;;18.00;81.30;;;16.87;100.00;95381.09;6092131;23;20022;-73
2023/09/18 04:40:31;;;;;;;10.85;9.27;;;17.90;81.50;;;16.86;100.00;95380.28;6068456;23;20006;-69
2023/09/18 04:43:00;;;;;;;9.40;8.50;;;17.90;81.30;;;16.84;100.00;95382.41;6092946;23;20006;-74
2023/09/18 04:45:26;;;;;;;9.38;8.48;;;17.80;80.70;;;16.82;100.00;95379.19;6068756;23;20026;-72
2023/09/18 04:47:53;;;;;;;8.95;7.65;;;17.80;81.20;;;16.78;100.00;95378.06;6068149;23;20030;-73
2023/09/18 04:50:19;;;;;;;12.80;7.25;;;17.80;81.30;;;16.76;100.00;95377.50;6044443;23;20552;-70
2023/09/18 04:52:44;;;;;;;8.88;7.68;;;17.80;81.40;;;16.75;100.00;95379.38;6044240;23;20018;-72
2023/09/18 04:55:11;;;;;;;8.45;7.15;;;17.70;81.40;;;16.71;100.00;95377.41;6092886;23;20373;-74
2023/09/18 04:57:37;;;;;;;8.07;7.13;;;17.70;81.50;;;16.69;100.00;95371.56;6044616;23;20352;-72
2023/09/18 05:00:12;;;;;;;8.93;7.70;;;17.60;81.50;;;16.68;100.00;95377.91;6044247;23;20022;-74
2023/09/18 05:02:38;;;;;;;8.57;7.72;;;17.70;81.70;;;16.68;100.00;95377.91;6092207;23;20018;-73
2023/09/18 05:05:04;;;;;;;10.50;7.63;;;17.80;81.50;;;16.68;100.00;95377.91;6093166;23;20375;-72
2023/09/18 05:07:31;;;;;;;8.43;7.55;;;17.70;81.50;;;16.66;100.00;95385.28;6092609;23;20035;-73
2023/09/18 05:09:57;;;;;;;10.05;8.18;;;17.70;81.60;;;16.67;100.00;95382.41;6021663;23;20006;-72
2023/09/18 05:12:23;;;;;;;9.63;8.60;;;17.70;81.70;;;16.68;100.00;95393.84;6093505;23;20046;-72
2023/09/18 05:14:48;;;;;;;10.73;8.77;;;17.70;81.80;;;16.65;100.00;95384.50;6068229;23;20338;-73
2023/09/18 05:17:16;;;;;;;9.43;8.30;;;17.80;81.80;;;16.66;100.00;95382.63;6044665;23;20032;-74
2023/09/18 05:19:42;;;;;;;8.93;8.02;;;17.80;81.80;;;16.70;100.00;95389.09;6068289;23;20010;-74
2023/09/18 05:22:10;;;;;;;9.75;8.73;;;17.90;81.60;;;16.73;100.00;95385.94;6092333;23;20040;-74
2023/09/18 05:24:38;;;;;;;9.55;8.50;;;17.90;81.60;;;16.76;100.00;95385.47;6068513;23;20041;-72
2023/09/18 05:27:06;;;;;;;9.48;8.48;;;18.00;81.60;;;16.80;100.00;95392.72;6044549;23;20018;-74
2023/09/18 05:29:32;;;;;;;13.00;11.57;;;18.10;81.50;;;16.84;100.00;95399.13;6068546;23;20364;-72
2023/09/18 05:31:57;;;;;;;28.08;25.20;;;18.10;81.40;;;16.90;100.00;95401.84;6093154;23;20029;-72
2023/09/18 05:34:23;;;;;;;28.85;24.58;;;18.20;81.20;;;16.94;100.00;95393.13;6091694;23;20006;-74
2023/09/18 05:36:49;;;;;;;13.60;11.65;;;18.30;81.10;;;16.98;100.00;95394.28;6092620;23;20030;-71
2023/09/18 05:39:15;;;;;;;10.38;9.30;;;18.30;80.70;;;17.02;100.00;95395.41;6067973;23;20014;-73
2023/09/18 05:41:41;;;;;;;10.60;8.40;;;18.30;80.70;;;17.07;100.00;95387.47;6091663;23;20073;-74
2023/09/18 05:44:07;;;;;;;9.02;8.13;;;18.30;80.40;;;17.08;100.00;95380.31;6067447;23;20038;-74
2023/09/18 05:46:36;;;;;;;11.77;8.05;;;18.40;80.20;;;17.08;100.00;95382.97;6092223;23;20116;-70
2023/09/18 05:49:02;;;;;;;8.95;8.05;;;18.40;80.20;;;17.11;100.00;95385.94;6067951;23;20013;-70
2023/09/18 05:51:29;;;;;;;11.27;8.02;;;18.50;79.90;;;17.18;100.00;95396.38;6071590;23;20032;-70
2023/09/18 05:53:55;;;;;;;8.75;7.18;;;18.60;79.70;;;17.22;100.00;95400.16;6071263;23;20378;-70
2023/09/18 05:56:21;;;;;;;8.18;7.38;;;18.60;79.60;;;17.30;100.00;95396.25;6071651;23;20076;-70
2023/09/18 05:58:47;;;;;;;8.43;7.53;;;18.80;79.50;;;17.38;100.00;95390.50;6048049;23;20093;-70
2023/09/18 06:01:12;;;;;;;8.20;7.40;;;18.90;79.70;;;17.45;100.00;95381.28;6098894;23;20044;-70
2023/09/18 06:03:38;;;;;;;8.65;6.72;;;18.90;79.70;;;17.54;100.00;95378.19;6070898;23;20543;-70
2023/09/18 06:06:08;;;;;;;11.32;6.85;;;19.10;79.60;;;17.62;100.00;95373.19;6097772;23;20049;-71
2023/09/18 06:08:34;;;;;;;9.17;7.77;;;19.10;79.40;;;17.71;100.00;95377.06;6048168;23;20590;-70
2023/09/18 06:10:59;;;;;;;7.55;6.85;;;19.30;79.40;;;17.81;100.00;95379.00;6071778;23;20704;-70
2023/09/18 06:13:25;;;;;;;9.00;6.80;;;19.40;79.30;;;17.92;100.00;95387.91;6071417;23;20096;-70
2023/09/18 06:15:54;;;;;;;7.82;6.93;;;19.50;79.00;;;18.02;100.00;95377.34;6072230;23;20771;-70
2023/09/18 06:18:22;;;;;;;9.07;7.45;;;19.60;78.80;;;18.08;100.00;95381.66;6095947;23;20028;-70
2023/09/18 06:20:48;;;;;;;8.60;7.20;;;19.60;79.10;;;18.19;100.00;95382.56;6071785;23;20022;-70
2023/09/18 06:23:14;;;;;;;11.05;7.43;;;19.80;78.70;;;18.29;100.00;95383.41;6047938;23;20275;-69
2023/09/18 06:25:40;;;;;;;9.00;6.53;;;19.80;78.50;;;18.37;100.00;95384.81;6047525;23;20476;-70
2023/09/18 06:28:06;;;;;;;8.30;6.60;;;20.00;78.40;;;18.45;100.00;95395.00;6048044;23;20069;-69
2023/09/18 06:30:33;;;;;;;14.70;13.07;;;20.10;77.70;;;18.54;100.00;95393.44;6071663;23;20045;-69
2023/09/18 06:32:59;;;;;;;8.23;7.28;;;20.20;77.00;;;18.62;100.00;95397.53;6095496;23;20104;-69
2023/09/18 06:35:25;;;;;;;11.32;7.90;;;20.10;77.10;;;18.67;100.00;95394.91;6070989;23;20020;-69
2023/09/18 06:37:51;;;;;;;9.88;7.05;;;20.20;76.60;;;18.73;100.00;95393.88;6095607;23;20056;-69
2023/09/18 06:40:17;;;;;;;8.25;7.30;;;20.40;76.70;;;18.79;100.00;95398.19;6095886;23;20437;-70
2023/09/18 06:42:42;;;;;;;8.90;7.03;;;20.40;76.50;;;18.82;100.00;95405.69;6048221;23;20010;-69
2023/09/18 06:45:08;;;;;;;7.75;6.93;;;20.40;76.40;;;18.86;100.00;95403.28;6071388;23;20069;-69
2023/09/18 06:47:34;;;;;;;9.75;7.03;;;20.50;76.00;;;18.89;100.00;95414.25;6047868;23;20013;-69
2023/09/18 06:50:00;;;;;;;7.25;6.53;;;20.40;75.70;;;18.91;100.00;95411.31;6095438;23;20057;-70
2023/09/18 06:52:27;;;;;;;8.18;7.35;;;20.50;75.00;;;18.90;100.00;95415.84;6047529;23;20010;-69
2023/09/18 06:54:57;;;;;;;7.57;6.50;;;20.40;75.20;;;18.92;100.00;95411.06;6071915;23;20037;-69
2023/09/18 06:57:24;;;;;;;8.73;6.30;;;20.50;75.30;;;18.94;100.00;95424.91;6097342;23;20014;-69
2023/09/18 06:59:49;;;;;;;8.80;6.65;;;20.50;75.20;;;18.99;100.00;95421.47;6071323;23;20018;-69
2023/09/18 07:02:15;;;;;;;7.95;6.05;;;20.60;75.10;;;19.06;100.00;95414.06;6094964;23;20414;-71
2023/09/18 07:04:45;;;;;;;6.93;5.95;;;20.90;74.30;;;19.21;100.00;95432.00;6095057;23;20808;-69
2023/09/18 07:07:14;;;;;;;7.40;6.53;;;21.30;73.30;;;19.36;100.00;95429.41;6095850;23;20113;-69
2023/09/18 07:09:41;;;;;;;6.82;5.93;;;21.60;72.90;;;19.53;100.00;95442.56;6071584;23;20022;-71
2023/09/18 07:12:10;;;;;;;6.57;5.60;;;22.00;72.10;;;19.71;100.00;95452.00;6094398;23;20014;-70
2023/09/18 07:14:37;;;;;;;8.88;6.38;;;22.40;70.70;;;19.88;100.00;95456.03;6095045;23;20030;-70
2023/09/18 07:17:04;;;;;;;6.88;5.90;;;22.70;69.50;;;20.10;100.00;95473.69;6094963;23;20531;-70
2023/09/18 07:19:29;;;;;;;8.32;6.18;;;23.10;68.50;;;20.34;100.00;95485.50;6070886;23;20014;-70
2023/09/18 07:21:55;;;;;;;6.78;5.63;;;23.20;68.10;;;20.52;100.00;95476.19;6119444;23;20699;-70
2023/09/18 07:24:21;;;;;;;5.57;4.95;;;23.30;67.80;;;20.72;100.00;95494.09;6095556;23;20740;-70
2023/09/18 07:26:47;;;;;;;6.07;4.30;;;23.60;66.00;;;20.94;100.00;95483.13;6096748;23;20118;-70
2023/09/18 07:29:15;;;;;;;5.10;4.60;;;24.30;64.30;;;21.18;100.00;95481.50;6070473;23;20105;-70
2023/09/18 07:31:42;;;;;;;6.68;4.70;;;24.60;63.00;;;21.39;100.00;95467.03;6094819;23;20637;-69
2023/09/18 07:34:08;;;;;;;7.07;4.80;;;24.30;63.10;;;21.54;100.00;95452.00;6094765;23;20010;-71
2023/09/18 07:36:34;;;;;;;4.90;4.10;;;24.30;62.70;;;21.64;100.00;95451.97;6070046;23;20014;-70
2023/09/18 07:38:59;;;;;;;7.55;4.60;;;24.10;63.10;;;21.74;100.00;95457.28;6094783;23;20060;-70
2023/09/18 07:41:25;;;;;;;8.43;4.53;;;24.20;63.40;;;21.86;100.00;95449.72;6046827;23;20033;-69
2023/09/18 07:43:51;;;;;;;6.72;4.43;;;24.40;63.40;;;21.92;98.81;95443.25;6096523;23;20045;-69
2023/09/18 07:46:17;;;;;;;6.35;4.65;;;24.40;62.80;;;22.04;98.34;95440.28;6070380;23;20021;-69
2023/09/18 07:48:42;;;;;;;6.68;4.78;;;25.10;61.90;;;22.19;97.33;95447.44;6097926;23;20013;-70
2023/09/18 07:51:12;;;;;;;7.05;4.80;;;25.30;60.50;;;22.34;95.00;95430.44;6094391;23;20104;-69
2023/09/18 07:53:38;;;;;;;8.07;5.30;;;26.10;58.20;;;22.55;95.41;95443.41;6096080;23;20018;-70
2023/09/18 07:56:04;;;;;;;9.05;5.20;;;26.60;56.60;;;22.76;93.68;95435.19;6069560;23;20120;-69
2023/09/18 07:58:33;;;;;;;5.90;4.72;;;26.80;55.20;;;22.97;90.40;95436.63;6070512;23;20895;-69
2023/09/18 08:00:59;;;;;;;9.93;5.28;;;26.90;55.40;;;23.15;91.68;95437.81;6071044;23;20138;-69
2023/09/18 08:03:26;;;;;;;6.80;4.97;;;27.40;54.40;;;23.42;91.23;95448.78;6070081;23;20436;-70
2023/09/18 08:05:55;;;;;;;9.90;5.22;;;28.00;53.60;;;23.71;87.24;95446.03;6047049;23;20018;-69
2023/09/18 08:08:21;;;;;;;6.45;4.53;;;28.40;51.70;;;24.02;87.20;95467.16;6074254;23;20018;-69
2023/09/18 08:10:47;;;;;;;6.70;4.68;;;28.80;50.40;;;24.28;86.06;95471.09;6052819;23;20045;-69
2023/09/18 08:13:13;;;;;;;5.60;4.47;;;28.80;50.60;;;24.54;84.95;95478.78;6076569;23;20010;-68
2023/09/18 08:15:39;;;;;;;8.10;4.93;;;28.60;51.60;;;24.71;83.83;95485.25;6052389;23;20015;-70
2023/09/18 08:18:05;;;;;;;5.85;4.30;;;28.30;52.50;;;24.83;82.78;95486.66;6073339;23;20044;-69
2023/09/18 08:20:32;;;;;;;9.43;4.15;;;28.10;53.10;;;24.87;81.90;95485.78;6098509;23;20021;-69
2023/09/18 08:23:01;;;;;;;6.43;4.20;;;27.90;53.10;;;24.97;80.86;95488.31;6049116;23;20021;-69
2023/09/18 08:25:27;;;;;;;4.57;3.88;;;28.10;52.80;;;25.11;80.29;95498.34;6097019;23;20071;-70
2023/09/18 08:27:52;;;;;;;7.60;4.03;;;28.50;52.60;;;25.27;79.71;95491.59;6097242;23;20037;-69
2023/09/18 08:30:20;;;;;;;7.28;4.03;;;28.70;52.10;;;25.39;78.93;95491.13;6096748;23;20188;-71
2023/09/18 08:32:46;;;;;;;5.00;3.65;;;28.60;52.10;;;25.40;78.16;95487.34;6111651;23;20092;-70
2023/09/18 08:35:12;;;;;;;5.30;3.88;;;28.20;52.70;;;25.47;77.23;95491.22;6121155;23;20306;-71
2023/09/18 08:37:42;;;;;;;6.07;3.78;;;28.70;51.70;;;25.61;75.96;95486.66;6073308;23;20014;-70
2023/09/18 08:40:11;;;;;;;9.20;4.03;;;28.80;50.90;;;25.75;75.03;95489.38;6098078;23;20052;-71
2023/09/18 08:42:39;;;;;;;6.55;4.03;;;29.00;50.80;;;25.87;74.69;95491.56;6073252;23;20468;-70
2023/09/18 08:45:10;;;;;;;5.78;3.97;;;29.00;51.00;;;25.93;73.18;95499.25;6096793;23;20325;-70
2023/09/18 08:47:38;;;;;;;6.07;3.88;;;29.00;51.10;;;26.03;74.15;95500.16;6073679;23;20081;-70
2023/09/18 08:50:04;;;;;;;5.45;3.50;;;29.00;51.10;;;26.10;73.98;95503.22;6072887;23;20366;-71
2023/09/18 08:52:30;;;;;;;7.15;3.80;;;29.10;50.70;;;26.33;73.70;95501.38;6073030;23;20017;-71
2023/09/18 08:54:56;;;;;;;6.82;3.38;;;30.10;49.40;;;26.65;73.37;95498.50;6097275;23;20006;-70
2023/09/18 08:57:22;;;;;;;6.53;3.40;;;30.70;48.00;;;26.93;72.41;95495.69;6097012;23;20127;-70
2023/09/18 08:59:48;;;;;;;5.15;3.50;;;31.00;47.40;;;27.23;71.13;95508.47;6096932;23;20021;-71
2023/09/18 09:02:14;;;;;;;5.85;3.47;;;31.10;45.90;;;27.40;70.55;95508.59;6096255;23;20033;-71
2023/09/18 09:04:40;;;;;;;5.90;3.72;;;31.00;47.00;;;27.58;69.62;95498.63;6120709;23;20017;-70
2023/09/18 09:07:06;;;;;;;6.75;3.40;;;30.90;47.60;;;27.68;68.75;95494.91;6073115;23;20002;-72
2023/09/18 09:09:32;;;;;;;6.38;3.42;;;30.80;47.70;;;27.76;68.35;95491.44;6096966;23;20022;-71
2023/09/18 09:11:58;;;;;;;7.80;3.20;;;30.80;48.00;;;27.80;68.50;95488.88;6072639;23;20527;-72
2023/09/18 09:14:29;;;;;;;4.88;3.22;;;30.60;48.60;;;27.74;67.58;95486.34;6120821;23;20033;-73
2023/09/18 09:16:56;;;;;;;5.85;3.60;;;30.10;49.00;;;27.59;67.26;95489.41;6099310;23;20018;-71
2023/09/18 09:19:35;;;;;;;6.55;3.80;;;29.70;49.90;;;27.42;65.60;95484.75;6073349;23;20013;-71
2023/09/18 09:22:00;;;;;;;9.60;4.00;;;29.30;51.00;;;27.24;67.14;95496.56;6121202;23;20006;-69
2023/09/18 09:24:43;;;;;;;8.02;3.50;;;28.90;51.00;;;27.08;66.97;95492.66;6073128;23;20068;-71
2023/09/18 09:27:09;;;;;;;6.57;3.83;;;28.80;52.40;;;26.96;68.96;95498.59;6073327;23;20300;-72
2023/09/18 09:29:35;;;;;;;5.93;3.85;;;28.60;53.80;;;26.82;68.87;95495.94;6096601;23;20020;-70
2023/09/18 09:32:17;;;;;;;6.10;3.67;;;28.50;53.40;;;26.70;68.12;95493.00;6120403;23;20014;-71
2023/09/18 09:34:43;;;;;;;6.82;4.28;;;28.30;53.80;;;26.54;69.70;95499.88;6096882;23;20018;-71
2023/09/18 09:37:13;;;;;;;6.65;3.92;;;28.10;54.20;;;26.40;69.29;95501.78;6097150;23;20017;-70
2023/09/18 09:39:49;;;;;;;5.57;3.83;;;28.00;54.10;;;26.28;70.50;95505.00;6074485;23;20025;-71
2023/09/18 09:42:24;;;;;;;5.47;4.00;;;27.90;55.30;;;26.17;71.58;95509.78;6096281;23;20017;-70
2023/09/18 09:45:14;;;;;;;5.40;4.20;;;27.70;56.10;;;26.03;71.05;95517.13;6074651;23;20114;-70
2023/09/18 09:47:42;;;;;;;9.52;6.88;;;27.50;55.90;;;25.90;72.68;95526.00;6096811;23;20049;-70
2023/09/18 09:50:18;;;;;;;10.32;7.25;;;27.30;57.20;;;25.79;73.87;95525.38;6122084;23;20026;-70
2023/09/18 09:52:52;;;;;;;7.07;4.05;;;27.30;58.10;;;25.67;74.19;95529.66;6120738;23;20020;-71
2023/09/18 09:55:33;;;;;;;6.68;3.50;;;27.20;57.70;;;25.48;73.17;95524.34;6074395;23;20002;-70
2023/09/18 09:58:04;;;;;;;9.70;5.47;;;26.80;57.50;;;25.33;74.33;95534.28;6074155;23;20115;-71
2023/09/18 10:00:45;;;;;;;7.38;4.72;;;26.70;58.00;;;25.20;75.74;95548.53;6096485;23;20014;-71
2023/09/18 10:03:17;;;;;;;7.32;4.53;;;26.60;59.20;;;25.10;75.47;95548.66;6098685;23;20456;-70
2023/09/18 10:05:48;;;;;;;6.57;4.03;;;26.40;59.30;;;25.02;76.36;95555.53;6096626;23;20034;-70
2023/09/18 10:08:26;;;;;;;7.00;4.00;;;26.40;59.60;;;25.04;77.54;95549.84;6072227;23;20208;-71
2023/09/18 10:11:00;;;;;;;6.32;4.00;;;26.60;59.50;;;25.07;77.43;95545.78;6096574;23;20037;-70